Time;durP1;ratioP1;P1;durP2;ratioP2;P2;SDS_P1;SDS_P2;PMS_P1;PMS_P2;Temp;Humidity;BMP_temperature;BMP_pressure;BME280_temperature;BME280_humidity;BME280_pressure;Samples;Min_cycle;Max_cycle;Signal;HPM_P1;HPM_P2
2021/06/19 00:02:07;;;;;;;8.97;5.50;;;24.60;99.90;;;;;;4999134;28;20483;-49
2021/06/19 00:04:37;;;;;;;9.63;6.10;;;24.50;99.90;;;;;;4991356;28;20491;-49
2021/06/19 00:07:06;;;;;;;7.43;5.37;;;24.50;99.90;;;;;;4999083;28;20465;-53
2021/06/19 00:09:40;;;;;;;6.47;5.87;;;24.40;99.90;;;;;;4998648;28;20897;-49
2021/06/19 00:12:08;;;;;;;8.37;6.27;;;24.30;99.90;;;;;;4998493;28;20934;-54
2021/06/19 00:14:35;;;;;;;6.50;5.90;;;24.30;99.90;;;;;;4998048;28;20465;-49
2021/06/19 00:17:02;;;;;;;8.33;5.57;;;24.30;99.90;;;;;;4998465;28;20496;-50
2021/06/19 00:19:33;;;;;;;7.43;6.00;;;24.20;99.90;;;;;;4999421;28;20494;-46
2021/06/19 00:22:00;;;;;;;7.53;5.03;;;24.20;99.90;;;;;;4997595;28;20916;-49
2021/06/19 00:24:29;;;;;;;6.60;5.30;;;24.20;99.90;;;;;;4998853;28;20527;-47
2021/06/19 00:26:56;;;;;;;9.23;6.17;;;24.20;99.90;;;;;;4998585;28;20444;-47
2021/06/19 00:29:24;;;;;;;6.80;5.70;;;24.00;99.90;;;;;;4998088;28;20584;-49
2021/06/19 00:31:52;;;;;;;7.60;5.40;;;24.00;99.90;;;;;;4998278;28;20469;-45
2021/06/19 00:34:19;;;;;;;8.20;4.67;;;23.90;99.90;;;;;;4999366;28;20824;-45
2021/06/19 00:36:46;;;;;;;8.57;6.00;;;24.00;99.90;;;;;;4998093;28;20899;-46
2021/06/19 00:39:13;;;;;;;10.43;5.50;;;23.90;99.90;;;;;;4998897;28;20465;-48
2021/06/19 00:41:41;;;;;;;7.90;5.50;;;23.90;99.90;;;;;;4998043;28;20504;-45
2021/06/19 00:44:17;;;;;;;7.90;5.90;;;23.80;99.90;;;;;;4998556;28;20603;-45
2021/06/19 00:46:50;;;;;;;17.30;6.60;;;23.80;99.90;;;;;;4998476;28;20933;-46
2021/06/19 00:49:18;;;;;;;6.70;6.10;;;23.70;99.90;;;;;;4992205;28;20461;-45
2021/06/19 00:51:45;;;;;;;5.93;5.43;;;23.70;99.90;;;;;;4992263;28;20480;-46
2021/06/19 00:54:13;;;;;;;6.20;5.70;;;23.60;99.90;;;;;;4991980;28;20560;-47
2021/06/19 00:56:42;;;;;;;7.60;5.63;;;23.50;99.90;;;;;;4992436;28;20498;-48
2021/06/19 00:59:11;;;;;;;6.43;5.70;;;23.50;99.90;;;;;;4992006;28;20472;-46
2021/06/19 01:01:38;;;;;;;7.07;5.40;;;23.50;99.90;;;;;;4997006;28;20528;-48
2021/06/19 01:04:08;;;;;;;7.00;5.80;;;23.50;99.90;;;;;;4998041;28;20469;-55
2021/06/19 01:06:38;;;;;;;7.13;5.90;;;23.50;99.90;;;;;;4989462;28;20961;-52
2021/06/19 01:09:07;;;;;;;6.80;5.00;;;23.40;99.90;;;;;;4997495;28;20845;-53
2021/06/19 01:11:35;;;;;;;5.47;4.60;;;23.30;99.90;;;;;;4997560;28;20469;-55
2021/06/19 01:14:04;;;;;;;5.37;4.90;;;23.30;99.90;;;;;;4998495;28;20469;-53
2021/06/19 01:16:32;;;;;;;4.97;4.53;;;23.30;99.90;;;;;;4994783;28;20467;-53
2021/06/19 01:18:59;;;;;;;6.03;4.60;;;23.40;99.90;;;;;;4995351;28;20748;-45
2021/06/19 01:21:29;;;;;;;5.00;4.03;;;23.30;99.90;;;;;;4993285;28;20461;-46
2021/06/19 01:23:57;;;;;;;5.03;4.50;;;23.30;99.90;;;;;;4991710;28;20840;-49
2021/06/19 01:26:27;;;;;;;6.00;4.17;;;23.20;99.90;;;;;;4996823;28;20528;-45
2021/06/19 01:28:56;;;;;;;4.50;4.10;;;23.10;99.90;;;;;;4997515;28;20480;-48
2021/06/19 01:31:23;;;;;;;3.97;3.57;;;23.10;99.90;;;;;;4997052;28;20472;-46
2021/06/19 01:33:51;;;;;;;4.77;3.63;;;23.10;99.90;;;;;;4998547;28;20928;-51
2021/06/19 01:36:21;;;;;;;4.77;4.37;;;23.10;99.90;;;;;;4997501;28;20469;-50
2021/06/19 01:38:51;;;;;;;6.23;4.40;;;23.10;99.90;;;;;;4997656;28;20472;-49
2021/06/19 01:41:19;;;;;;;3.97;3.57;;;23.10;99.90;;;;;;4996412;28;20901;-52
2021/06/19 01:43:49;;;;;;;5.77;3.83;;;23.10;99.90;;;;;;4997245;28;20771;-45
2021/06/19 01:46:17;;;;;;;4.37;4.07;;;23.00;99.90;;;;;;4997677;28;20903;-45
2021/06/19 01:48:44;;;;;;;4.37;3.97;;;23.00;99.90;;;;;;4996862;28;20468;-50
2021/06/19 01:51:12;;;;;;;4.70;4.30;;;22.90;99.90;;;;;;4997966;28;20473;-48
2021/06/19 01:53:42;;;;;;;4.43;4.00;;;22.80;99.90;;;;;;4996949;28;20475;-55
2021/06/19 01:56:13;;;;;;;3.70;3.33;;;22.80;99.90;;;;;;4998077;28;20461;-49
2021/06/19 01:58:40;;;;;;;3.53;3.33;;;22.80;99.90;;;;;;4995780;28;20468;-54
2021/06/19 02:01:12;;;;;;;3.47;3.20;;;22.80;99.90;;;;;;4997746;28;20472;-48
2021/06/19 02:03:39;;;;;;;4.00;3.53;;;22.80;99.90;;;;;;4990631;28;20469;-52
2021/06/19 02:06:07;;;;;;;4.73;3.20;;;22.80;99.90;;;;;;4996493;28;20503;-55
2021/06/19 02:08:34;;;;;;;4.17;3.40;;;22.80;99.90;;;;;;4996741;28;20468;-50
2021/06/19 02:11:08;;;;;;;3.20;3.00;;;22.80;99.90;;;;;;4997244;28;20783;-52
2021/06/19 02:13:36;;;;;;;5.00;3.20;;;22.70;99.90;;;;;;4996440;28;20877;-49
2021/06/19 02:16:05;;;;;;;3.47;2.60;;;22.70;99.90;;;;;;4990880;28;20937;-52
2021/06/19 02:18:33;;;;;;;3.17;2.87;;;22.60;99.90;;;;;;4997555;28;20477;-50
2021/06/19 02:21:00;;;;;;;6.23;3.00;;;22.60;99.90;;;;;;4996342;28;20461;-46
2021/06/19 02:23:28;;;;;;;3.10;2.73;;;22.60;99.90;;;;;;4997197;28;20521;-46
2021/06/19 02:25:58;;;;;;;3.30;3.00;;;22.60;99.90;;;;;;4996856;28;20493;-46
2021/06/19 02:28:27;;;;;;;3.80;3.47;;;22.50;99.90;;;;;;4997194;28;20918;-49
2021/06/19 02:30:58;;;;;;;3.20;2.90;;;22.40;99.90;;;;;;4995464;28;20481;-46
2021/06/19 02:33:25;;;;;;;6.97;3.30;;;22.40;99.90;;;;;;4997288;28;20474;-46
2021/06/19 02:35:55;;;;;;;3.40;3.10;;;22.40;99.90;;;;;;4993545;28;20528;-45
2021/06/19 02:38:23;;;;;;;5.63;2.40;;;22.40;99.90;;;;;;4991508;28;20894;-45
2021/06/19 02:40:52;;;;;;;3.10;2.73;;;22.40;99.90;;;;;;4996448;28;20472;-50
2021/06/19 02:43:20;;;;;;;3.63;2.80;;;22.30;99.90;;;;;;4996633;28;20483;-45
2021/06/19 02:45:48;;;;;;;3.33;3.13;;;22.30;99.90;;;;;;4996858;28;20852;-45
2021/06/19 02:48:15;;;;;;;3.17;2.97;;;22.20;99.90;;;;;;4996878;28;20443;-49
2021/06/19 02:50:44;;;;;;;3.50;3.20;;;22.20;99.90;;;;;;4997182;28;20469;-47
2021/06/19 02:53:13;;;;;;;3.50;2.73;;;22.10;99.90;;;;;;4997362;28;20464;-52
2021/06/19 02:55:42;;;;;;;3.37;3.07;;;22.00;99.90;;;;;;5000892;28;20466;-52
2021/06/19 02:58:13;;;;;;;3.60;3.27;;;22.00;99.90;;;;;;4999996;28;20487;-53
2021/06/19 03:00:41;;;;;;;6.50;2.83;;;22.00;99.90;;;;;;4999955;28;20476;-56
2021/06/19 03:03:09;;;;;;;3.13;2.77;;;21.90;99.90;;;;;;4994512;28;20469;-52
2021/06/19 03:05:38;;;;;;;3.43;2.97;;;21.90;99.90;;;;;;4997809;28;20518;-49
2021/06/19 03:08:09;;;;;;;3.30;3.10;;;21.90;99.90;;;;;;4999690;28;20469;-50
2021/06/19 03:10:39;;;;;;;3.47;3.27;;;21.80;99.90;;;;;;5000646;28;20793;-47
2021/06/19 03:13:06;;;;;;;3.73;3.43;;;21.80;99.90;;;;;;5000243;28;20472;-45
2021/06/19 03:15:34;;;;;;;3.73;3.53;;;21.70;99.90;;;;;;4999922;28;20461;-49
2021/06/19 03:18:01;;;;;;;3.70;3.40;;;21.70;99.90;;;;;;5000155;28;20557;-46
2021/06/19 03:20:29;;;;;;;3.50;2.70;;;21.80;99.90;;;;;;5000127;28;20500;-49
2021/06/19 03:22:57;;;;;;;3.50;3.20;;;21.70;99.90;;;;;;5000244;28;20461;-49
2021/06/19 03:25:26;;;;;;;3.50;3.10;;;21.70;99.90;;;;;;5000152;28;20540;-47
2021/06/19 03:27:55;;;;;;;3.73;3.43;;;21.70;99.90;;;;;;5000124;28;20567;-46
2021/06/19 03:30:22;;;;;;;3.30;3.03;;;21.70;99.90;;;;;;4998856;28;20518;-49
2021/06/19 03:32:50;;;;;;;3.63;3.27;;;21.60;99.90;;;;;;5000644;28;20476;-53
2021/06/19 03:35:19;;;;;;;4.93;3.60;;;21.60;99.90;;;;;;4995285;28;20636;-49
2021/06/19 03:37:46;;;;;;;3.63;3.33;;;21.50;99.90;;;;;;4993896;28;20803;-48
2021/06/19 03:40:15;;;;;;;3.10;2.90;;;21.50;99.90;;;;;;4997774;28;20475;-46
2021/06/19 03:42:42;;;;;;;3.60;3.27;;;21.50;99.90;;;;;;4993667;28;20511;-45
2021/06/19 03:45:13;;;;;;;3.20;2.90;;;21.50;99.90;;;;;;4999523;28;20928;-46
2021/06/19 03:47:40;;;;;;;4.50;3.73;;;21.50;99.90;;;;;;4999232;28;20500;-50
2021/06/19 03:50:12;;;;;;;4.23;3.40;;;21.50;99.90;;;;;;4999379;28;20476;-55
2021/06/19 03:52:39;;;;;;;3.40;3.10;;;21.50;99.90;;;;;;4999402;28;20464;-51
2021/06/19 03:55:09;;;;;;;4.33;3.10;;;21.40;99.90;;;;;;5000092;28;20469;-54
2021/06/19 03:57:36;;;;;;;3.30;3.00;;;21.40;99.90;;;;;;4999014;28;20844;-50
2021/06/19 04:00:06;;;;;;;3.30;3.10;;;21.40;99.90;;;;;;4999232;28;20504;-51
2021/06/19 04:02:37;;;;;;;3.80;3.50;;;21.40;99.90;;;;;;4997335;28;20469;-53
2021/06/19 04:05:05;;;;;;;7.00;3.27;;;21.40;99.90;;;;;;4994096;28;20473;-52
2021/06/19 04:07:32;;;;;;;4.97;3.20;;;21.30;99.90;;;;;;4995606;28;20503;-46
2021/06/19 04:09:59;;;;;;;2.80;2.60;;;21.30;99.90;;;;;;4996901;28;20471;-47
2021/06/19 04:12:27;;;;;;;3.67;3.10;;;21.30;99.90;;;;;;4998360;28;20772;-46
2021/06/19 04:14:54;;;;;;;3.77;3.27;;;21.30;99.90;;;;;;4992870;28;20469;-50
2021/06/19 04:17:21;;;;;;;3.03;2.83;;;21.40;99.90;;;;;;4995885;28;20492;-51
2021/06/19 04:19:49;;;;;;;3.20;2.90;;;21.30;99.90;;;;;;4992671;28;20477;-46
2021/06/19 04:22:17;;;;;;;6.57;3.70;;;21.30;99.90;;;;;;4998267;28;20469;-52
2021/06/19 04:24:44;;;;;;;3.20;3.00;;;21.40;99.90;;;;;;4995794;28;20483;-54
2021/06/19 04:27:17;;;;;;;3.03;2.70;;;21.30;99.90;;;;;;4998904;28;20500;-49
2021/06/19 04:29:44;;;;;;;3.27;2.97;;;21.30;99.90;;;;;;4998069;28;20435;-47
2021/06/19 04:32:12;;;;;;;3.90;3.60;;;21.30;99.90;;;;;;4998131;28;20472;-46
2021/06/19 04:34:40;;;;;;;3.37;3.10;;;21.40;99.90;;;;;;4998938;28;20890;-47
2021/06/19 04:37:10;;;;;;;3.87;3.40;;;21.40;99.90;;;;;;4999314;28;20496;-47
2021/06/19 04:39:39;;;;;;;3.73;3.40;;;21.40;99.90;;;;;;4997816;28;20473;-48
2021/06/19 04:42:08;;;;;;;4.00;3.60;;;21.40;99.90;;;;;;4999629;28;20472;-48
2021/06/19 04:47:25;;;;;;;4.23;3.30;;;21.40;99.90;;;;;;4997193;28;20476;-52
2021/06/19 04:49:52;;;;;;;3.90;3.53;;;21.30;99.90;;;;;;4994646;28;20475;-47
2021/06/19 04:52:31;;;;;;;;;;;;;;;;;;;;;
2021/06/19 04:55:11;;;;;;;4.23;3.70;;;21.30;99.90;;;;;;4996213;28;20465;-52
2021/06/19 04:57:39;;;;;;;3.90;3.60;;;21.40;99.90;;;;;;4997243;28;20469;-49
2021/06/19 05:00:08;;;;;;;3.27;2.90;;;21.40;99.90;;;;;;4997626;28;20507;-54
2021/06/19 05:02:35;;;;;;;4.10;3.70;;;21.40;99.90;;;;;;4994677;28;20466;-53
2021/06/19 05:05:02;;;;;;;3.90;3.60;;;21.40;99.90;;;;;;4993162;28;20471;-56
2021/06/19 05:07:32;;;;;;;3.30;3.10;;;21.50;99.90;;;;;;4997431;28;20497;-50
2021/06/19 05:10:05;;;;;;;3.47;3.17;;;21.40;99.90;;;;;;4997685;28;20778;-55
2021/06/19 05:12:32;;;;;;;3.63;3.43;;;21.40;99.90;;;;;;4997954;28;20531;-53
2021/06/19 05:15:00;;;;;;;4.03;3.63;;;21.40;99.90;;;;;;4997299;28;20473;-53
2021/06/19 05:17:27;;;;;;;4.10;2.90;;;21.50;99.90;;;;;;4996859;28;20492;-46
2021/06/19 05:19:54;;;;;;;3.00;2.70;;;21.60;99.90;;;;;;4998472;28;20451;-47
2021/06/19 05:22:22;;;;;;;3.23;3.00;;;21.60;99.90;;;;;;4997728;28;20494;-53
2021/06/19 05:24:50;;;;;;;3.37;3.10;;;21.70;99.90;;;;;;4997922;28;20479;-49
2021/06/19 05:27:18;;;;;;;3.00;2.70;;;21.80;99.90;;;;;;4997737;28;20492;-55
2021/06/19 05:29:45;;;;;;;2.80;2.60;;;21.80;99.90;;;;;;4997944;28;20767;-53
2021/06/19 05:32:12;;;;;;;8.37;3.10;;;21.90;99.90;;;;;;4996993;28;20483;-48
2021/06/19 05:34:41;;;;;;;3.43;3.10;;;21.90;99.90;;;;;;4997730;28;20535;-50
2021/06/19 05:37:08;;;;;;;4.00;3.07;;;22.00;99.90;;;;;;4997825;28;20914;-48
2021/06/19 05:39:35;;;;;;;3.20;2.87;;;22.10;99.90;;;;;;4997677;28;20520;-48
2021/06/19 05:42:07;;;;;;;3.00;2.80;;;22.20;99.90;;;;;;4998136;28;20464;-48
2021/06/19 05:44:34;;;;;;;3.87;3.43;;;22.40;99.90;;;;;;4998274;28;20476;-48
2021/06/19 05:47:06;;;;;;;3.37;3.07;;;22.50;99.90;;;;;;4997678;28;20500;-50
2021/06/19 05:49:33;;;;;;;3.90;3.33;;;22.70;99.90;;;;;;4998412;28;20473;-46
2021/06/19 05:52:00;;;;;;;3.53;3.23;;;22.70;99.90;;;;;;4998364;28;20479;-49
2021/06/19 05:54:27;;;;;;;3.70;3.40;;;22.90;99.90;;;;;;4997778;28;20834;-52
2021/06/19 05:56:54;;;;;;;3.83;3.53;;;23.10;99.90;;;;;;4997997;28;20890;-49
2021/06/19 05:59:22;;;;;;;4.83;3.00;;;23.20;99.90;;;;;;4996885;28;20473;-55
2021/06/19 06:01:49;;;;;;;3.63;3.33;;;23.20;99.90;;;;;;4998499;28;20469;-57
2021/06/19 06:04:16;;;;;;;4.50;4.20;;;23.30;99.90;;;;;;4990362;28;20725;-54
2021/06/19 06:06:43;;;;;;;3.90;3.60;;;23.40;99.90;;;;;;4997521;28;20500;-56
2021/06/19 06:09:10;;;;;;;3.80;3.40;;;23.70;99.90;;;;;;4997562;28;20468;-55
2021/06/19 06:11:40;;;;;;;4.20;3.80;;;23.90;99.90;;;;;;4998045;28;20469;-50
2021/06/19 06:14:08;;;;;;;3.40;3.10;;;24.20;99.90;;;;;;4997483;28;20820;-50
2021/06/19 06:16:36;;;;;;;3.63;3.30;;;24.50;99.90;;;;;;4997250;28;20488;-46
2021/06/19 06:19:03;;;;;;;3.80;3.50;;;24.70;99.90;;;;;;4997834;28;20543;-53
2021/06/19 06:21:36;;;;;;;4.40;3.60;;;24.70;99.90;;;;;;4997804;28;20535;-53
2021/06/19 07:02:42;;;;;;;3.10;2.80;;;26.60;87.20;;;;;;4977077;28;20578;-55
2021/06/19 07:05:11;;;;;;;3.73;3.13;;;26.40;85.10;;;;;;4977457;28;20472;-51
2021/06/19 07:07:39;;;;;;;3.17;2.87;;;26.50;83.70;;;;;;4982243;28;20945;-50
2021/06/19 07:10:11;;;;;;;2.70;2.60;;;26.10;86.20;;;;;;4983826;28;20469;-56
2021/06/19 07:12:41;;;;;;;2.90;2.70;;;26.30;82.40;;;;;;4985743;28;20465;-58
2021/06/19 07:15:12;;;;;;;2.87;2.67;;;26.10;85.10;;;;;;4989416;28;20474;-56
2021/06/19 07:17:39;;;;;;;4.27;2.97;;;26.00;85.30;;;;;;4984346;28;20469;-54
2021/06/19 07:20:11;;;;;;;3.83;2.53;;;26.10;81.90;;;;;;4981985;28;20469;-51
2021/06/19 07:22:38;;;;;;;2.80;2.60;;;26.40;82.40;;;;;;4982058;28;20476;-54
2021/06/19 07:25:08;;;;;;;2.27;2.13;;;26.80;81.50;;;;;;4981382;28;20503;-52
2021/06/19 07:27:40;;;;;;;2.93;2.73;;;27.00;78.90;;;;;;4980650;28;20513;-54
2021/06/19 07:30:09;;;;;;;2.60;2.40;;;27.20;79.10;;;;;;4979598;28;20485;-49
2021/06/19 07:32:37;;;;;;;2.97;2.77;;;27.30;78.00;;;;;;4980939;28;20473;-46
2021/06/19 07:35:08;;;;;;;2.73;2.17;;;27.10;76.80;;;;;;4980525;28;20477;-49
2021/06/19 07:37:36;;;;;;;3.27;3.07;;;27.50;76.80;;;;;;4980967;28;20480;-51
2021/06/19 07:40:05;;;;;;;3.00;2.80;;;27.10;76.40;;;;;;4978845;28;20476;-50
2021/06/19 07:42:32;;;;;;;3.50;2.47;;;26.90;74.40;;;;;;4980695;28;20743;-48
2021/06/19 07:44:59;;;;;;;3.70;3.40;;;27.40;81.20;;;;;;4980811;28;20509;-47
2021/06/19 07:47:26;;;;;;;3.07;2.67;;;27.60;79.00;;;;;;4980412;28;20476;-47
2021/06/19 07:49:54;;;;;;;2.70;2.50;;;28.00;74.40;;;;;;4980565;28;20476;-48
2021/06/19 07:52:23;;;;;;;3.00;2.80;;;28.50;76.00;;;;;;4980945;28;20500;-53
2021/06/19 07:54:50;;;;;;;2.33;2.20;;;29.00;70.50;;;;;;4980496;28;20469;-49
2021/06/19 07:57:17;;;;;;;3.77;2.90;;;28.90;73.10;;;;;;4980696;28;20444;-49
2021/06/19 07:59:44;;;;;;;3.30;2.90;;;29.40;70.40;;;;;;4980368;28;20469;-45
2021/06/19 08:02:14;;;;;;;2.93;2.70;;;29.70;67.30;;;;;;4980192;28;20943;-51
2021/06/19 08:04:41;;;;;;;2.77;2.57;;;29.60;64.50;;;;;;4972464;28;20771;-51
2021/06/19 08:07:08;;;;;;;3.20;2.60;;;29.80;67.90;;;;;;4979607;28;20497;-55
2021/06/19 08:09:40;;;;;;;4.17;2.87;;;30.30;64.30;;;;;;4979907;28;20470;-56
2021/06/19 08:12:08;;;;;;;3.27;2.97;;;30.00;62.90;;;;;;4980350;28;20470;-53
2021/06/19 08:14:35;;;;;;;3.03;2.53;;;30.30;62.10;;;;;;4976671;28;20480;-55
2021/06/19 08:17:08;;;;;;;2.37;2.27;;;30.30;60.80;;;;;;4979939;28;20569;-55
2021/06/19 08:19:40;;;;;;;1.80;1.70;;;29.80;58.40;;;;;;4979729;28;20459;-54
2021/06/19 08:22:07;;;;;;;3.57;2.50;;;29.60;58.30;;;;;;4979183;28;20564;-50
2021/06/19 08:24:36;;;;;;;2.50;2.40;;;29.60;59.00;;;;;;4979854;28;20504;-46
2021/06/19 08:27:03;;;;;;;2.20;2.00;;;29.30;58.80;;;;;;4979932;28;20520;-52
2021/06/19 08:29:33;;;;;;;2.03;1.93;;;29.80;58.90;;;;;;4978859;28;20482;-50
2021/06/19 08:32:00;;;;;;;2.43;2.33;;;29.80;60.30;;;;;;4980094;28;20906;-52
2021/06/19 08:34:29;;;;;;;2.33;2.23;;;30.40;58.60;;;;;;4979756;28;20436;-55
2021/06/19 08:36:56;;;;;;;2.47;2.23;;;30.40;57.30;;;;;;4979973;28;20470;-46
2021/06/19 08:39:24;;;;;;;2.40;2.20;;;30.60;56.40;;;;;;4979559;28;20768;-55
2021/06/19 08:41:55;;;;;;;2.80;2.50;;;31.20;55.60;;;;;;4979773;28;20882;-52
2021/06/19 08:44:23;;;;;;;1.90;1.80;;;31.10;54.00;;;;;;4980439;28;20742;-52
2021/06/19 08:46:51;;;;;;;2.17;2.07;;;30.60;55.50;;;;;;4979122;28;20472;-52
2021/06/19 08:49:21;;;;;;;3.30;2.20;;;30.50;54.10;;;;;;4980112;28;20477;-48
2021/06/19 08:51:53;;;;;;;2.40;2.30;;;30.90;53.80;;;;;;4978571;28;20481;-47
2021/06/19 08:54:23;;;;;;;4.50;2.13;;;30.60;54.60;;;;;;4979660;28;20470;-52
2021/06/19 08:56:50;;;;;;;2.40;2.17;;;30.40;54.00;;;;;;4979477;28;20564;-51
2021/06/19 08:59:20;;;;;;;2.70;2.60;;;30.70;55.40;;;;;;4979323;28;20469;-47
2021/06/19 09:01:48;;;;;;;2.37;2.23;;;31.20;52.60;;;;;;4978910;28;20502;-51
2021/06/19 09:04:15;;;;;;;2.37;2.17;;;31.60;51.00;;;;;;4972684;28;20507;-56
2021/06/19 09:06:44;;;;;;;2.23;2.10;;;31.80;51.00;;;;;;4978716;28;20894;-56
2021/06/19 09:09:16;;;;;;;3.53;2.97;;;31.00;52.50;;;;;;4978987;28;20950;-50
2021/06/19 09:11:46;;;;;;;2.30;2.20;;;31.60;51.60;;;;;;4978832;28;20533;-57
2021/06/19 09:14:15;;;;;;;2.50;2.30;;;31.70;50.50;;;;;;4978271;28;20465;-53
2021/06/19 09:16:57;;;;;;;2.17;2.07;;;31.50;50.80;;;;;;4979143;28;20876;-53
2021/06/19 09:19:26;;;;;;;2.13;2.03;;;31.80;50.60;;;;;;4978903;28;20461;-56
2021/06/19 09:22:16;;;;;;;2.70;2.50;;;32.20;53.80;;;;;;4977464;28;20465;-56
2021/06/19 09:24:46;;;;;;;2.30;2.10;;;31.90;49.80;;;;;;4978696;28;20504;-52
2021/06/19 09:27:30;;;;;;;2.70;1.80;;;32.50;50.10;;;;;;4978679;28;20856;-50
2021/06/19 09:30:13;;;;;;;2.00;1.90;;;32.70;47.10;;;;;;4971447;28;20477;-55
2021/06/19 09:32:48;;;;;;;1.97;1.87;;;31.90;47.40;;;;;;4978978;28;20469;-56
2021/06/19 09:35:18;;;;;;;5.83;1.97;;;32.40;50.60;;;;;;4977455;28;20902;-56
2021/06/19 09:37:49;;;;;;;2.30;2.20;;;32.70;48.30;;;;;;4978448;28;20461;-56
2021/06/19 09:40:25;;;;;;;2.40;2.20;;;32.70;47.50;;;;;;4977454;28;20488;-56
2021/06/19 09:42:54;;;;;;;2.70;2.50;;;33.10;47.40;;;;;;4978705;28;20472;-55
2021/06/19 09:45:26;;;;;;;2.47;2.27;;;32.60;47.50;;;;;;4978314;28;20473;-55
2021/06/19 09:47:55;;;;;;;2.80;2.60;;;32.80;49.10;;;;;;4972209;28;20518;-56
2021/06/19 09:50:22;;;;;;;3.93;2.40;;;33.10;46.10;;;;;;4977630;28;20475;-56
2021/06/19 09:52:49;;;;;;;2.30;2.00;;;33.20;45.50;;;;;;4977818;28;20839;-50
2021/06/19 09:55:17;;;;;;;2.70;2.50;;;32.80;45.10;;;;;;4978379;28;20469;-51
2021/06/19 09:57:48;;;;;;;2.47;2.30;;;33.00;46.90;;;;;;4978190;28;20469;-48
2021/06/19 10:00:20;;;;;;;2.30;2.10;;;33.10;46.10;;;;;;4977916;28;20477;-55
2021/06/19 10:02:49;;;;;;;2.83;2.63;;;33.50;45.60;;;;;;4973594;28;20540;-49
2021/06/19 10:05:18;;;;;;;2.67;2.50;;;33.40;43.60;;;;;;4972963;28;20482;-53
2021/06/19 10:07:47;;;;;;;2.37;2.17;;;33.20;43.90;;;;;;4976968;28;20489;-53
2021/06/19 10:10:14;;;;;;;4.20;2.17;;;33.10;45.30;;;;;;4975686;28;20465;-49
2021/06/19 10:12:41;;;;;;;2.70;2.50;;;33.40;45.00;;;;;;4977865;28;20740;-50
2021/06/19 10:15:12;;;;;;;2.30;2.10;;;33.50;44.10;;;;;;4978103;28;20469;-49
2021/06/19 10:17:41;;;;;;;2.17;1.97;;;33.60;45.00;;;;;;4977931;28;20914;-49
2021/06/19 10:20:10;;;;;;;2.20;2.10;;;33.70;43.60;;;;;;4978490;28;20469;-49
2021/06/19 10:22:41;;;;;;;2.27;2.10;;;33.90;43.30;;;;;;4976932;28;20473;-46
2021/06/19 10:25:10;;;;;;;3.23;2.20;;;34.20;42.80;;;;;;4977466;28;20539;-49
2021/06/19 10:27:39;;;;;;;2.57;2.37;;;34.40;43.90;;;;;;4978202;28;20523;-51
2021/06/19 10:30:08;;;;;;;2.53;2.30;;;34.20;43.80;;;;;;4977848;28;20492;-49
2021/06/19 10:32:40;;;;;;;2.67;2.57;;;34.90;41.70;;;;;;4981063;28;20439;-55
2021/06/19 10:35:09;;;;;;;2.10;2.00;;;34.40;40.20;;;;;;4978145;28;20475;-50
2021/06/19 10:37:36;;;;;;;1.90;1.80;;;34.20;39.70;;;;;;4982281;28;20559;-54
2021/06/19 10:40:22;;;;;;;2.37;2.17;;;34.40;40.30;;;;;;4978614;28;20469;-56
2021/06/19 10:42:50;;;;;;;2.30;2.20;;;34.50;39.90;;;;;;4980285;28;20747;-49
2021/06/19 10:45:21;;;;;;;3.17;2.60;;;34.20;39.80;;;;;;4977499;28;20476;-52
2021/06/19 10:48:04;;;;;;;2.10;1.90;;;33.70;41.10;;;;;;4978615;28;20496;-54
2021/06/19 10:50:31;;;;;;;2.90;2.03;;;33.80;40.60;;;;;;4972678;28;20583;-45
2021/06/19 10:53:08;;;;;;;2.37;2.17;;;34.00;42.50;;;;;;4977934;28;20910;-55
2021/06/19 10:55:53;;;;;;;34.43;31.43;;;34.40;41.30;;;;;;4978539;28;20535;-52
2021/06/19 10:58:24;;;;;;;3.37;3.03;;;34.60;39.90;;;;;;4976725;28;20479;-54
2021/06/19 11:00:52;;;;;;;2.40;2.23;;;35.30;40.40;;;;;;4977260;28;20501;-55
2021/06/19 11:03:39;;;;;;;3.90;3.27;;;35.40;40.50;;;;;;4970355;28;20480;-56
2021/06/19 11:06:20;;;;;;;2.57;2.37;;;35.50;38.50;;;;;;4974720;28;20489;-57
2021/06/19 11:09:13;;;;;;;2.00;1.90;;;34.90;40.20;;;;;;4976178;28;20499;-50
2021/06/19 11:11:56;;;;;;;1.90;1.80;;;35.40;40.00;;;;;;4974415;28;20452;-54
2021/06/19 11:14:55;;;;;;;2.63;2.50;;;35.50;39.10;;;;;;4977233;28;20773;-54
2021/06/19 11:17:59;;;;;;;2.87;2.67;;;35.50;38.70;;;;;;4981237;28;20897;-53
2021/06/19 11:20:33;;;;;;;4.30;2.23;;;35.00;39.20;;;;;;4980693;28;20465;-51
2021/06/19 11:23:08;;;;;;;2.07;1.97;;;35.50;40.10;;;;;;4987646;28;20940;-51
2021/06/19 11:25:54;;;;;;;2.53;2.33;;;36.10;39.70;;;;;;4979675;28;20478;-56
2021/06/19 11:28:31;;;;;;;2.47;2.27;;;35.60;38.60;;;;;;4976957;28;20571;-50
2021/06/19 11:31:04;;;;;;;2.73;2.53;;;35.80;40.00;;;;;;4981142;28;20209;-57
2021/06/19 11:33:47;;;;;;;2.65;2.50;;;36.20;39.90;;;;;;4980269;28;20569;-55
2021/06/19 11:36:36;;;;;;;2.40;2.20;;;36.40;42.00;;;;;;4979319;28;20221;-55
2021/06/19 11:39:15;;;;;;;5.93;2.63;;;36.30;40.20;;;;;;4979643;28;20472;-55
2021/06/19 11:41:48;;;;;;;2.50;2.40;;;36.20;38.30;;;;;;4977910;28;20472;-52
2021/06/19 11:44:33;;;;;;;2.53;2.43;;;36.10;39.30;;;;;;4979506;28;20667;-51
2021/06/19 11:47:08;;;;;;;5.63;2.70;;;36.20;37.40;;;;;;4982097;28;20217;-57
2021/06/19 11:49:38;;;;;;;2.43;2.13;;;35.70;36.00;;;;;;4977481;28;20318;-56
2021/06/19 11:52:09;;;;;;;2.50;2.30;;;35.60;36.00;;;;;;4979569;28;20465;-56
2021/06/19 11:54:44;;;;;;;2.93;2.40;;;35.30;36.90;;;;;;4981293;28;20857;-51
2021/06/19 11:57:27;;;;;;;2.53;2.43;;;35.70;37.60;;;;;;4974219;28;20469;-56
2021/06/19 12:00:20;;;;;;;1.90;1.80;;;35.30;37.40;;;;;;4973976;28;20466;-52
2021/06/19 12:02:52;;;;;;;2.40;2.30;;;35.80;37.00;;;;;;4975839;28;20476;-57
2021/06/19 12:05:20;;;;;;;2.67;2.40;;;35.30;38.00;;;;;;4973748;28;20452;-57
2021/06/19 12:07:53;;;;;;;2.40;2.30;;;35.20;36.40;;;;;;4979274;28;20466;-56
2021/06/19 12:10:45;;;;;;;2.67;2.47;;;34.80;38.00;;;;;;4982269;28;20951;-56
2021/06/19 12:13:14;;;;;;;2.87;2.67;;;35.30;39.70;;;;;;4976049;28;20444;-57
2021/06/19 12:15:52;;;;;;;3.13;2.63;;;34.70;38.60;;;;;;4979556;28;20443;-57
2021/06/19 12:18:19;;;;;;;3.33;2.37;;;34.20;39.00;;;;;;4980421;28;20646;-56
2021/06/19 12:21:03;;;;;;;2.80;2.60;;;34.30;40.50;;;;;;4979729;28;20473;-57
2021/06/19 12:23:36;;;;;;;2.50;2.27;;;35.20;39.10;;;;;;4974405;28;20713;-57
2021/06/19 12:26:06;;;;;;;3.00;2.73;;;34.90;38.90;;;;;;4981050;28;20465;-54
2021/06/19 12:28:35;;;;;;;2.80;2.20;;;35.90;38.70;;;;;;4979914;28;20767;-56
2021/06/19 12:31:07;;;;;;;3.47;3.17;;;36.50;37.40;;;;;;4981521;28;20849;-54
2021/06/19 12:33:35;;;;;;;3.60;3.30;;;36.80;35.80;;;;;;4983166;28;20435;-53
2021/06/19 12:36:08;;;;;;;2.63;2.43;;;36.60;37.10;;;;;;4982582;28;20465;-57
2021/06/19 12:38:37;;;;;;;2.80;2.60;;;36.00;36.50;;;;;;4979606;28;20637;-56
2021/06/19 12:41:06;;;;;;;2.93;2.73;;;35.50;37.20;;;;;;4985225;28;20465;-53
2021/06/19 12:43:33;;;;;;;2.30;2.20;;;35.00;38.80;;;;;;4984009;28;20469;-53
2021/06/19 12:46:15;;;;;;;3.93;2.73;;;35.30;39.70;;;;;;4979553;28;20477;-54
2021/06/19 12:48:43;;;;;;;3.40;2.80;;;35.50;39.40;;;;;;4978457;28;20503;-51
2021/06/19 12:51:23;;;;;;;3.47;3.27;;;35.20;37.50;;;;;;4979003;28;20465;-52
2021/06/19 12:53:51;;;;;;;2.87;2.67;;;34.70;38.70;;;;;;4979092;28;20536;-57
2021/06/19 12:56:18;;;;;;;2.77;2.57;;;35.40;39.60;;;;;;4980637;28;20555;-53
2021/06/19 12:58:51;;;;;;;3.17;2.97;;;35.50;39.60;;;;;;4978717;28;20472;-52
2021/06/19 13:01:22;;;;;;;3.60;3.30;;;35.30;39.30;;;;;;4978828;28;20524;-51
2021/06/19 13:03:51;;;;;;;3.00;2.80;;;35.00;40.50;;;;;;4971004;28;20477;-53
2021/06/19 13:06:29;;;;;;;3.97;2.70;;;35.30;40.30;;;;;;4978520;28;20898;-47
2021/06/19 13:08:58;;;;;;;3.30;3.10;;;35.10;40.00;;;;;;4978491;28;20478;-52
2021/06/19 13:11:33;;;;;;;3.63;3.43;;;34.30;40.70;;;;;;4981336;28;20485;-55
2021/06/19 13:14:01;;;;;;;2.80;2.60;;;33.80;42.20;;;;;;4971554;28;20483;-55
2021/06/19 13:16:33;;;;;;;4.43;3.23;;;33.40;42.10;;;;;;4983384;28;20792;-50
2021/06/19 13:19:05;;;;;;;2.80;2.60;;;32.70;43.90;;;;;;4978204;28;20882;-55
2021/06/19 13:21:33;;;;;;;3.43;3.13;;;32.60;44.90;;;;;;4977721;28;20949;-53
2021/06/19 13:24:19;;;;;;;3.03;2.83;;;32.70;43.20;;;;;;4978428;28;20469;-54
2021/06/19 13:26:46;;;;;;;3.53;3.33;;;32.20;43.20;;;;;;4978887;28;20742;-47
2021/06/19 13:29:13;;;;;;;5.03;3.50;;;31.90;44.40;;;;;;4978665;28;20497;-54
2021/06/19 13:31:47;;;;;;;2.97;2.77;;;32.20;43.80;;;;;;4978200;28;20926;-49
2021/06/19 13:34:22;;;;;;;3.77;3.10;;;32.20;43.80;;;;;;4979143;28;20477;-56
2021/06/19 13:36:53;;;;;;;3.00;2.80;;;32.40;44.20;;;;;;4981436;28;20481;-51
2021/06/19 13:39:23;;;;;;;3.77;3.47;;;32.80;43.30;;;;;;4977702;28;20466;-54
2021/06/19 13:41:53;;;;;;;3.53;3.23;;;33.20;43.70;;;;;;4978191;28;20771;-54
2021/06/19 13:44:27;;;;;;;4.30;3.03;;;33.80;41.70;;;;;;4978276;28;20485;-57
2021/06/19 13:46:58;;;;;;;3.10;2.90;;;34.10;42.00;;;;;;4978091;28;20472;-57